createdAt,value
2022-08-16T00:00:22.141Z,99404.50
2022-08-16T00:02:49.616Z,99402.41
2022-08-16T00:05:16.625Z,99408.50
2022-08-16T00:07:44.565Z,99411.47
2022-08-16T00:10:20.706Z,99407.78
2022-08-16T00:12:52.980Z,99407.25
2022-08-16T00:15:52.224Z,99404.97
2022-08-16T00:18:16.554Z,99420.00
2022-08-16T00:20:45.505Z,99418.50
2022-08-16T00:23:14.360Z,99410.22
2022-08-16T00:26:36.101Z,99413.53
2022-08-16T00:28:29.860Z,99415.00
2022-08-16T00:30:56.601Z,99417.22
2022-08-16T00:33:26.102Z,99419.97
2022-08-16T00:35:53.045Z,99418.09
2022-08-16T00:38:40.524Z,99410.22
2022-08-16T00:41:08.317Z,99418.09
2022-08-16T00:43:42.901Z,99414.63
2022-08-16T00:46:35.461Z,99415.16
2022-08-16T00:49:17.224Z,99417.34
2022-08-16T00:51:47.228Z,99417.13
2022-08-16T00:54:24.831Z,99415.22
2022-08-16T00:56:56.210Z,99422.84
2022-08-16T00:59:27.513Z,99411.00
2022-08-16T01:01:54.760Z,99419.50
2022-08-16T01:04:29.392Z,99422.78
2022-08-16T01:07:01.866Z,99417.91
2022-08-16T01:09:34.232Z,99426.06
2022-08-16T01:12:08.765Z,99427.56
2022-08-16T01:14:47.214Z,99423.00
2022-08-16T01:17:15.434Z,99429.56
2022-08-16T01:19:47.281Z,99431.09
2022-08-16T01:22:56.004Z,99431.84
2022-08-16T01:25:45.344Z,99436.72
2022-08-16T01:28:30.841Z,99436.47
2022-08-16T01:30:59.323Z,99431.56
2022-08-16T01:33:33.317Z,99436.66
2022-08-16T01:36:12.031Z,99427.44
2022-08-16T01:38:53.102Z,99436.72
2022-08-16T01:41:30.727Z,99442.97
2022-08-16T01:44:01.658Z,99440.31
2022-08-16T01:46:40.203Z,99443.06
2022-08-16T01:49:42.766Z,99435.22
2022-08-16T01:52:29.550Z,99439.84
2022-08-16T01:55:35.430Z,99440.69
2022-08-16T01:58:04.422Z,99432.03
2022-08-16T02:00:31.154Z,99440.50
2022-08-16T02:02:59.638Z,99444.00
2022-08-16T02:05:30.410Z,99442.13
2022-08-16T02:08:00.258Z,99447.28
2022-08-16T02:10:28.470Z,99448.31
2022-08-16T02:13:00.059Z,99446.09
2022-08-16T02:15:30.164Z,99445.88
2022-08-16T02:18:01.216Z,99442.38
2022-08-16T02:20:31.394Z,99441.84
2022-08-16T02:22:59.845Z,99437.50
2022-08-16T02:25:52.484Z,99432.88
2022-08-16T02:28:17.181Z,99430.78
2022-08-16T02:30:50.679Z,99432.47
2022-08-16T02:33:24.678Z,99439.00
2022-08-16T02:36:14.372Z,99439.53
2022-08-16T02:39:01.516Z,99442.78
2022-08-16T02:41:28.307Z,99442.25
2022-08-16T02:43:57.009Z,99443.34
2022-08-16T02:46:29.898Z,99445.28
2022-08-16T02:49:01.736Z,99442.56
2022-08-16T02:51:29.285Z,99437.72
2022-08-16T02:53:59.383Z,99442.88
2022-08-16T02:56:32.461Z,99441.56
2022-08-16T02:59:00.036Z,99441.56
2022-08-16T03:01:36.723Z,99439.69
2022-08-16T03:04:39.640Z,99439.19
2022-08-16T03:07:00.569Z,99442.69
2022-08-16T03:09:50.713Z,99441.34
2022-08-16T03:12:21.604Z,99439.19
2022-08-16T03:14:57.543Z,99442.16
2022-08-16T03:17:24.255Z,99442.16
2022-08-16T03:20:02.707Z,99437.00
2022-08-16T03:22:35.289Z,99444.06
2022-08-16T03:25:09.729Z,99444.31
2022-08-16T03:27:39.074Z,99433.22
2022-08-16T03:30:17.757Z,99437.25
2022-08-16T03:32:51.403Z,99424.75
2022-08-16T03:35:33.220Z,99430.72
2022-08-16T03:38:34.267Z,99433.72
2022-08-16T03:40:57.983Z,99432.09
2022-08-16T03:43:51.632Z,99425.28
2022-08-16T03:46:47.259Z,99421.50
2022-08-16T03:49:04.293Z,99429.38
2022-08-16T03:51:31.389Z,99432.06
2022-08-16T03:54:04.829Z,99428.00
2022-08-16T03:56:57.666Z,99430.19
2022-08-16T03:59:29.707Z,99421.69
2022-08-16T04:02:01.309Z,99432.28
2022-08-16T04:04:32.549Z,99428.47
2022-08-16T04:07:05.763Z,99431.69
2022-08-16T04:09:38.198Z,99426.84
2022-08-16T04:12:10.870Z,99429.03
2022-08-16T04:14:56.654Z,99440.69
2022-08-16T04:17:26.914Z,99429.31
2022-08-16T04:19:54.959Z,99424.44
2022-08-16T04:22:27.721Z,99429.84
2022-08-16T04:24:59.308Z,99436.94
2022-08-16T04:27:32.248Z,99427.69
2022-08-16T04:30:03.243Z,99442.34
2022-08-16T04:32:33.117Z,99435.03
2022-08-16T04:35:15.076Z,99434.19
2022-08-16T04:37:46.102Z,99437.72
2022-08-16T04:40:34.463Z,99436.09
2022-08-16T04:43:03.740Z,99445.28
2022-08-16T04:45:35.907Z,99446.34
2022-08-16T04:48:22.047Z,99444.84
2022-08-16T04:51:00.345Z,99443.50
2022-08-16T04:53:36.404Z,99437.34
2022-08-16T04:56:11.547Z,99439.00
2022-08-16T04:58:45.580Z,99441.97
2022-08-16T05:01:23.099Z,99435.56
2022-08-16T05:04:19.702Z,99436.81
2022-08-16T05:06:48.197Z,99426.31
2022-08-16T05:09:24.379Z,99445.09
2022-08-16T05:11:57.544Z,99435.47
2022-08-16T05:14:45.988Z,99438.88
2022-08-16T05:17:16.604Z,99432.06
2022-08-16T05:19:46.713Z,99432.53
2022-08-16T05:22:28.524Z,99426.44
2022-08-16T05:24:58.462Z,99428.34
2022-08-16T05:27:26.337Z,99430.03
2022-08-16T05:29:56.907Z,99424.34
2022-08-16T05:32:34.086Z,99432.69
2022-08-16T05:35:10.924Z,99433.09
2022-08-16T05:37:42.205Z,99442.09
2022-08-16T05:40:13.452Z,99452.16
2022-08-16T05:42:47.595Z,99450.81
2022-08-16T05:45:21.347Z,99455.38
2022-08-16T05:48:00.036Z,99451.00
2022-08-16T05:50:47.137Z,99455.13
2022-08-16T05:53:20.583Z,99456.53
2022-08-16T05:56:11.747Z,99455.63
2022-08-16T05:58:46.943Z,99458.09
2022-08-16T06:01:17.788Z,99457.31
2022-08-16T06:03:48.267Z,99456.94
2022-08-16T06:06:27.926Z,99452.41
2022-08-16T06:08:56.568Z,99450.81
2022-08-16T06:11:25.532Z,99460.44
2022-08-16T06:13:56.506Z,99448.22
2022-08-16T06:16:44.949Z,99452.28
2022-08-16T06:19:18.388Z,99455.09
2022-08-16T06:21:57.139Z,99448.44
2022-08-16T06:24:54.007Z,99457.00
2022-08-16T06:27:11.013Z,99449.75
2022-08-16T06:29:39.844Z,99444.25
2022-08-16T06:32:08.834Z,99450.59
2022-08-16T06:34:56.603Z,99452.75
2022-08-16T06:37:23.533Z,99455.56
2022-08-16T06:39:50.604Z,99449.63
2022-08-16T06:42:24.435Z,99447.16
2022-08-16T06:45:10.918Z,99460.50
2022-08-16T06:47:52.799Z,99463.88
2022-08-16T06:50:28.774Z,99463.22
2022-08-16T06:53:00.392Z,99462.41
2022-08-16T06:55:33.732Z,99466.94
2022-08-16T06:58:08.367Z,99471.13
2022-08-16T07:00:37.808Z,99468.56
2022-08-16T07:03:27.838Z,99465.28
2022-08-16T07:05:57.066Z,99467.25
2022-08-16T07:08:33.782Z,99469.19
2022-08-16T07:11:01.486Z,99471.44
2022-08-16T07:14:00.194Z,99464.44
2022-08-16T07:16:21.147Z,99476.84
2022-08-16T07:18:59.271Z,99491.69
2022-08-16T07:21:31.462Z,99492.91
2022-08-16T07:24:29.725Z,99498.75
2022-08-16T07:27:00.735Z,99504.03
2022-08-16T07:29:33.177Z,99504.72
2022-08-16T07:32:01.084Z,99517.75
2022-08-16T07:34:35.176Z,99508.84
2022-08-16T07:37:10.849Z,99503.88
2022-08-16T07:39:54.607Z,99502.50
2022-08-16T07:42:28.272Z,99507.13
2022-08-16T07:45:02.225Z,99509.28
2022-08-16T07:47:31.729Z,99501.97
2022-08-16T07:50:05.319Z,99507.44
2022-08-16T07:52:32.807Z,99504.88
2022-08-16T07:55:00.244Z,99506.31
2022-08-16T07:57:26.962Z,99510.78
2022-08-16T07:59:57.323Z,99511.94
2022-08-16T08:02:27.282Z,99509.38
2022-08-16T08:04:56.766Z,99510.03
2022-08-16T08:07:27.661Z,99517.28
2022-08-16T08:09:56.964Z,99514.84
2022-08-16T08:12:32.383Z,99514.09
2022-08-16T08:15:05.940Z,99521.19
2022-08-16T08:17:42.744Z,99529.53
2022-08-16T08:20:20.808Z,99524.13
2022-08-16T08:23:00.761Z,99525.41
2022-08-16T08:25:54.227Z,99533.13
2022-08-16T08:28:23.472Z,99525.34
2022-08-16T08:31:01.451Z,99528.63
2022-08-16T08:33:32.521Z,99531.63
2022-08-16T08:36:05.113Z,99536.34
2022-08-16T08:38:45.308Z,99536.38
2022-08-16T08:41:27.303Z,99544.84
2022-08-16T08:43:57.089Z,99537.22
2022-08-16T08:46:26.009Z,99543.13
2022-08-16T08:48:59.644Z,99551.50
2022-08-16T08:51:31.977Z,99548.75
2022-08-16T08:54:06.817Z,99563.78
2022-08-16T08:56:37.815Z,99552.56
2022-08-16T08:59:33.622Z,99565.91
2022-08-16T09:02:03.107Z,99556.63
2022-08-16T09:04:37.123Z,99561.13
2022-08-16T09:07:11.317Z,99562.59
2022-08-16T09:09:42.396Z,99560.16
2022-08-16T09:12:35.507Z,99563.84
2022-08-16T09:15:07.566Z,99556.84
2022-08-16T09:17:52.104Z,99558.25
2022-08-16T09:20:29.270Z,99560.97
2022-08-16T09:22:59.933Z,99559.38
2022-08-16T09:25:33.800Z,99559.16
2022-08-16T09:28:09.427Z,99554.88
2022-08-16T09:30:44.427Z,99568.16
2022-08-16T09:33:19.922Z,99564.47
2022-08-16T09:35:52.880Z,99568.38
2022-08-16T09:38:31.365Z,99563.22
2022-08-16T09:41:00.609Z,99567.84
2022-08-16T09:43:58.301Z,99557.34
2022-08-16T09:46:45.173Z,99562.69
2022-08-16T09:49:08.455Z,99554.75
2022-08-16T09:51:39.461Z,99551.19
2022-08-16T09:54:09.803Z,99558.78
2022-08-16T09:56:38.510Z,99552.41
2022-08-16T09:59:09.561Z,99551.03
2022-08-16T10:01:38.476Z,99560.06
2022-08-16T10:04:29.669Z,99556.84
2022-08-16T10:09:25.659Z,99551.00
2022-08-16T10:12:31.567Z,99554.25
2022-08-16T10:15:00.378Z,99548.41
2022-08-16T10:17:27.887Z,99542.47
2022-08-16T10:19:55.367Z,99556.19
2022-08-16T10:22:25.316Z,99565.88
2022-08-16T10:24:56.074Z,99562.97
2022-08-16T10:27:29.685Z,99553.28
2022-08-16T10:30:26.235Z,99559.41
2022-08-16T10:32:55.476Z,99559.09
2022-08-16T10:35:32.729Z,99552.94
2022-08-16T10:38:00.947Z,99555.44
2022-08-16T10:40:32.460Z,99552.72
2022-08-16T10:43:02.061Z,99553.28
2022-08-16T10:45:36.986Z,99557.13
2022-08-16T10:48:27.083Z,99555.75
2022-08-16T10:50:55.960Z,99562.84
2022-08-16T10:53:27.279Z,99566.34
2022-08-16T10:56:01.272Z,99555.81
2022-08-16T10:58:34.307Z,99554.53
2022-08-16T11:03:54.555Z,99559.69
2022-08-16T11:06:26.838Z,99557.25
2022-08-16T11:14:29.222Z,99564.38
2022-08-16T11:17:10.837Z,99567.66
2022-08-16T11:22:47.724Z,99563.09
2022-08-16T11:26:07.333Z,99566.72
2022-08-16T11:28:06.199Z,99572.16
2022-08-16T11:30:39.435Z,99571.38
2022-08-16T11:33:09.026Z,99579.16
2022-08-16T11:36:22.535Z,99569.25
2022-08-16T11:38:51.287Z,99563.91
2022-08-16T11:41:15.246Z,99568.34
2022-08-16T11:43:42.031Z,99569.31
2022-08-16T11:46:44.406Z,99566.97
2022-08-16T11:48:59.426Z,99574.88
2022-08-16T11:51:26.135Z,99569.16
2022-08-16T11:53:53.209Z,99578.06
2022-08-16T11:56:39.668Z,99567.06
2022-08-16T11:59:07.622Z,99569.34
2022-08-16T12:01:55.098Z,99563.59
2022-08-16T12:04:22.350Z,99563.72
2022-08-16T12:06:50.069Z,99568.34
2022-08-16T12:09:20.836Z,99575.53
2022-08-16T12:11:53.062Z,99566.16
2022-08-16T12:14:23.005Z,99565.72
2022-08-16T12:16:55.073Z,99557.31
2022-08-16T12:19:33.644Z,99560.38
2022-08-16T12:22:19.317Z,99567.97
2022-08-16T12:24:51.927Z,99570.72
2022-08-16T12:27:24.354Z,99572.38
2022-08-16T12:29:54.962Z,99570.09
2022-08-16T12:32:37.811Z,99569.88
2022-08-16T12:35:19.199Z,99572.47
2022-08-16T12:37:47.914Z,99562.44
2022-08-16T12:40:24.651Z,99566.50
2022-08-16T12:42:54.916Z,99569.09
2022-08-16T12:45:28.611Z,99567.72
2022-08-16T12:51:19.389Z,99561.91
2022-08-16T12:53:48.011Z,99571.03
2022-08-16T12:56:21.293Z,99564.28
2022-08-16T12:58:56.651Z,99570.63
2022-08-16T13:01:43.273Z,99564.66
2022-08-16T13:04:24.319Z,99568.44
2022-08-16T13:06:52.581Z,99572.47
2022-08-16T13:09:21.483Z,99573.28
2022-08-16T13:12:11.672Z,99574.81
2022-08-16T13:14:41.493Z,99577.91
2022-08-16T13:17:18.511Z,99573.78
2022-08-16T13:20:07.706Z,99586.25
2022-08-16T13:23:06.409Z,99581.31
2022-08-16T13:25:35.551Z,99572.06
2022-08-16T13:28:04.616Z,99575.22
2022-08-16T13:30:37.391Z,99566.22
2022-08-16T13:33:11.357Z,99573.47
2022-08-16T13:35:55.792Z,99564.88
2022-08-16T13:38:37.238Z,99569.13
2022-08-16T13:41:08.359Z,99568.81
2022-08-16T13:43:36.941Z,99571.59
2022-08-16T13:46:04.357Z,99570.91
2022-08-16T13:48:43.101Z,99573.41
2022-08-16T13:51:15.858Z,99570.16
2022-08-16T13:53:54.279Z,99574.59
2022-08-16T13:56:34.447Z,99571.66
2022-08-16T13:59:06.167Z,99564.31
2022-08-16T14:01:42.900Z,99568.84
2022-08-16T14:04:11.914Z,99555.84
2022-08-16T14:06:49.928Z,99556.19
2022-08-16T14:09:20.153Z,99558.16
2022-08-16T14:11:46.825Z,99558.03
2022-08-16T14:14:16.666Z,99559.41
2022-08-16T14:16:46.857Z,99556.94
2022-08-16T14:19:18.264Z,99549.16
2022-08-16T14:21:56.589Z,99549.38
2022-08-16T14:24:30.158Z,99549.34
2022-08-16T14:26:57.829Z,99554.91
2022-08-16T14:29:24.522Z,99563.72
2022-08-16T14:31:58.763Z,99553.59
2022-08-16T14:34:29.132Z,99557.47
2022-08-16T14:36:56.705Z,99564.31
2022-08-16T14:39:23.613Z,99561.88
2022-08-16T14:41:53.814Z,99552.47
2022-08-16T14:44:23.602Z,99560.56
2022-08-16T14:46:52.764Z,99557.78
2022-08-16T14:49:20.000Z,99557.66
2022-08-16T14:51:48.695Z,99556.28
2022-08-16T14:54:15.394Z,99556.72
2022-08-16T14:56:46.829Z,99558.94
2022-08-16T14:59:22.146Z,99562.06
2022-08-16T15:01:58.901Z,99563.19
2022-08-16T15:04:40.154Z,99564.19
2022-08-16T15:07:15.532Z,99558.00
2022-08-16T15:10:01.064Z,99563.72
2022-08-16T15:12:31.111Z,99560.31
2022-08-16T15:15:01.884Z,99561.00
2022-08-16T15:17:33.901Z,99560.88
2022-08-16T15:20:09.159Z,99565.03
2022-08-16T15:22:40.851Z,99566.31
2022-08-16T15:25:11.818Z,99560.00
2022-08-16T15:27:42.140Z,99562.84
2022-08-16T15:30:57.711Z,99565.50
2022-08-16T15:33:07.869Z,99560.56
2022-08-16T15:35:38.869Z,99563.22
2022-08-16T15:38:09.190Z,99569.38
2022-08-16T15:40:37.234Z,99564.13
2022-08-16T15:43:23.777Z,99569.41
2022-08-16T15:46:35.613Z,99562.31
2022-08-16T15:49:06.031Z,99558.75
2022-08-16T15:51:34.419Z,99566.94
2022-08-16T15:54:29.347Z,99564.66
2022-08-16T15:56:51.468Z,99567.75
2022-08-16T15:59:19.342Z,99563.03
2022-08-16T16:01:46.809Z,99553.69
2022-08-16T16:04:15.058Z,99556.72
2022-08-16T16:06:55.362Z,99552.66
2022-08-16T16:09:34.752Z,99559.13
2022-08-16T16:12:41.499Z,99560.22
2022-08-16T16:14:55.016Z,99565.75
2022-08-16T16:17:21.644Z,99562.16
2022-08-16T16:19:49.696Z,99569.03
2022-08-16T16:22:21.497Z,99567.44
2022-08-16T16:24:49.184Z,99564.00
2022-08-16T16:27:16.888Z,99566.53
2022-08-16T16:29:46.315Z,99556.41
2022-08-16T16:32:17.641Z,99568.34
2022-08-16T16:34:58.878Z,99566.84
2022-08-16T16:37:26.833Z,99568.25
2022-08-16T16:39:54.652Z,99563.66
2022-08-16T16:42:29.172Z,99570.09
2022-08-16T16:45:01.323Z,99568.25
2022-08-16T16:47:30.156Z,99572.00
2022-08-16T16:50:09.262Z,99579.44
2022-08-16T16:52:44.075Z,99575.25
2022-08-16T16:55:13.405Z,99577.16
2022-08-16T16:58:01.203Z,99570.09
2022-08-16T17:00:38.089Z,99573.34
2022-08-16T17:03:17.034Z,99575.22
2022-08-16T17:05:58.592Z,99579.34
2022-08-16T17:08:28.796Z,99581.56
2022-08-16T17:10:56.156Z,99581.28
2022-08-16T17:13:24.736Z,99582.31
2022-08-16T17:15:53.905Z,99586.19
2022-08-16T17:19:17.377Z,99588.16
2022-08-16T17:21:08.948Z,99590.41
2022-08-16T17:23:58.463Z,99591.06
2022-08-16T17:26:29.491Z,99591.56
2022-08-16T17:28:59.850Z,99592.03
2022-08-16T17:31:41.062Z,99590.03
2022-08-16T17:34:30.235Z,99597.81
2022-08-16T17:37:05.174Z,99605.13
2022-08-16T17:39:35.620Z,99603.38
2022-08-16T17:42:22.410Z,99602.00
2022-08-16T17:44:54.462Z,99612.84
2022-08-16T17:47:21.782Z,99613.34
2022-08-16T17:49:48.713Z,99611.06
2022-08-16T17:52:16.104Z,99614.47
2022-08-16T17:54:45.331Z,99611.53
2022-08-16T17:57:14.366Z,99613.97
2022-08-16T17:59:44.078Z,99621.03
2022-08-16T18:02:42.154Z,99617.69
2022-08-16T18:04:57.411Z,99621.22
2022-08-16T18:07:24.059Z,99625.72
2022-08-16T18:09:52.304Z,99629.25
2022-08-16T18:12:44.400Z,99627.44
2022-08-16T18:15:15.172Z,99631.25
2022-08-16T18:17:41.989Z,99635.06
2022-08-16T18:20:32.381Z,99633.19
2022-08-16T18:23:05.411Z,99644.00
2022-08-16T18:25:34.309Z,99650.16
2022-08-16T18:28:05.547Z,99647.00
2022-08-16T18:30:32.247Z,99651.28
2022-08-16T18:33:11.844Z,99649.72
2022-08-16T18:35:38.582Z,99651.34
2022-08-16T18:38:05.320Z,99659.06
2022-08-16T18:40:34.826Z,99665.09
2022-08-16T18:43:08.689Z,99664.47
2022-08-16T18:45:37.141Z,99674.00
2022-08-16T18:48:05.123Z,99664.91
2022-08-16T18:50:59.071Z,99671.25
2022-08-16T18:53:19.953Z,99680.75
2022-08-16T18:55:47.748Z,99666.16
2022-08-16T18:58:14.741Z,99673.13
2022-08-16T19:00:56.070Z,99672.72
2022-08-16T19:03:29.883Z,99681.00
2022-08-16T19:05:57.801Z,99683.31
2022-08-16T19:08:25.165Z,99687.22
2022-08-16T19:10:52.174Z,99685.69
2022-08-16T19:13:23.729Z,99694.78
2022-08-16T19:15:51.716Z,99697.31
2022-08-16T19:18:19.189Z,99695.16
2022-08-16T19:20:46.718Z,99694.69
2022-08-16T19:23:16.275Z,99700.81
2022-08-16T19:25:48.761Z,99703.56
2022-08-16T19:28:49.964Z,99708.59
2022-08-16T19:31:19.744Z,99714.22
2022-08-16T19:33:54.119Z,99710.59
2022-08-16T19:36:35.929Z,99717.97
2022-08-16T19:39:09.371Z,99722.19
2022-08-16T19:41:42.465Z,99714.63
2022-08-16T19:44:09.495Z,99726.72
2022-08-16T19:46:37.723Z,99731.13
2022-08-16T19:49:04.788Z,99731.44
2022-08-16T19:51:31.678Z,99733.34
2022-08-16T19:53:58.462Z,99728.31
2022-08-16T19:56:27.846Z,99730.69
2022-08-16T20:01:43.355Z,99729.19
2022-08-16T20:04:12.538Z,99734.94
2022-08-16T20:06:42.200Z,99731.59
2022-08-16T20:09:10.417Z,99729.69
2022-08-16T20:11:41.763Z,99732.63
2022-08-16T20:14:09.398Z,99728.19
2022-08-16T20:16:36.180Z,99740.22
2022-08-16T20:19:04.423Z,99738.09
2022-08-16T20:21:31.515Z,99742.16
2022-08-16T20:24:22.726Z,99741.56
2022-08-16T20:26:45.341Z,99736.38
2022-08-16T20:29:14.248Z,99735.69
2022-08-16T20:31:40.951Z,99740.63
2022-08-16T20:34:07.618Z,99751.09
2022-08-16T20:36:34.347Z,99751.38
2022-08-16T20:39:03.860Z,99748.41
2022-08-16T20:41:31.594Z,99749.50
2022-08-16T20:43:58.358Z,99759.84
2022-08-16T20:46:26.508Z,99759.38
2022-08-16T20:48:54.015Z,99766.31
2022-08-16T20:51:20.752Z,99757.03
2022-08-16T20:53:49.602Z,99765.03
2022-08-16T20:56:16.325Z,99763.22
2022-08-16T20:58:42.983Z,99766.53
2022-08-16T21:01:09.648Z,99768.06
2022-08-16T21:03:36.495Z,99770.50
2022-08-16T21:06:03.472Z,99768.72
2022-08-16T21:08:52.637Z,99773.34
2022-08-16T21:11:18.324Z,99776.59
2022-08-16T21:13:45.023Z,99781.59
2022-08-16T21:16:11.714Z,99781.63
2022-08-16T21:18:38.688Z,99785.59
2022-08-16T21:21:05.483Z,99790.38
2022-08-16T21:23:32.156Z,99791.06
2022-08-16T21:25:59.777Z,99790.09
2022-08-16T21:28:40.526Z,99785.53
2022-08-16T21:31:09.401Z,99786.66
2022-08-16T21:33:36.457Z,99785.53
2022-08-16T21:36:03.378Z,99788.34
2022-08-16T21:38:31.179Z,99789.50
2022-08-16T21:40:59.321Z,99789.53
2022-08-16T21:43:27.656Z,99789.09
2022-08-16T21:45:54.971Z,99796.28
2022-08-16T21:48:34.418Z,99797.78
2022-08-16T21:51:12.614Z,99805.34
2022-08-16T21:53:40.009Z,99807.59
2022-08-16T21:56:07.233Z,99811.84
2022-08-16T21:58:36.701Z,99814.09
2022-08-16T22:01:03.922Z,99814.72
2022-08-16T22:03:33.929Z,99808.81
2022-08-16T22:06:12.759Z,99812.09
2022-08-16T22:08:49.306Z,99819.34
2022-08-16T22:11:20.422Z,99818.34
2022-08-16T22:13:51.476Z,99818.41
2022-08-16T22:16:30.032Z,99821.72
2022-08-16T22:18:56.752Z,99821.72
2022-08-16T22:21:23.900Z,99824.19
2022-08-16T22:23:56.764Z,99818.47
2022-08-16T22:26:30.848Z,99819.59
2022-08-16T22:29:05.436Z,99817.44
2022-08-16T22:31:32.980Z,99812.81
2022-08-16T22:34:01.682Z,99820.75
2022-08-16T22:36:29.607Z,99819.91
2022-08-16T22:38:57.962Z,99820.75
2022-08-16T22:41:26.067Z,99822.13
2022-08-16T22:43:52.777Z,99819.69
2022-08-16T22:46:19.768Z,99818.59
2022-08-16T22:48:49.924Z,99824.84
2022-08-16T22:51:19.666Z,99821.88
2022-08-16T22:53:48.068Z,99819.66
2022-08-16T22:56:18.192Z,99825.56
2022-08-16T22:58:45.950Z,99820.16
2022-08-16T23:01:13.835Z,99820.44
2022-08-16T23:03:40.969Z,99818.56
2022-08-16T23:06:08.676Z,99819.91
2022-08-16T23:08:40.671Z,99818.56
2022-08-16T23:11:10.726Z,99816.66
2022-08-16T23:13:37.700Z,99823.41
2022-08-16T23:16:14.902Z,99830.22
2022-08-16T23:18:41.757Z,99820.44
2022-08-16T23:21:10.398Z,99816.91
2022-08-16T23:23:38.491Z,99815.28
2022-08-16T23:26:44.438Z,99810.09
2022-08-16T23:28:52.770Z,99810.66
2022-08-16T23:31:19.459Z,99812.59
2022-08-16T23:33:46.185Z,99816.69
2022-08-16T23:36:13.226Z,99823.78
2022-08-16T23:38:40.002Z,99828.63
2022-08-16T23:41:11.588Z,99836.56
2022-08-16T23:43:43.051Z,99836.97
2022-08-16T23:46:16.221Z,99827.25
2022-08-16T23:49:59.138Z,99821.53
2022-08-16T23:51:30.931Z,99823.44
2022-08-16T23:53:57.650Z,99821.53
2022-08-16T23:56:25.647Z,99814.47
2022-08-16T23:59:02.367Z,99816.66
